sensor_id;sensor_type;location;lat;lon;timestamp;P1;durP1;ratioP1;P2;durP2;ratioP2
17850;SDS011;9051;51.548;14.348;2023-04-24T00:02:17;4.20;;;3.30;;
17850;SDS011;9051;51.548;14.348;2023-04-24T00:04:49;3.43;;;3.13;;
17850;SDS011;9051;51.548;14.348;2023-04-24T00:07:22;4.23;;;3.50;;
17850;SDS011;9051;51.548;14.348;2023-04-24T00:09:54;4.93;;;3.30;;
17850;SDS011;9051;51.548;14.348;2023-04-24T00:12:26;4.53;;;3.47;;
17850;SDS011;9051;51.548;14.348;2023-04-24T00:14:58;3.83;;;3.50;;
17850;SDS011;9051;51.548;14.348;2023-04-24T00:17:30;4.20;;;3.40;;
17850;SDS011;9051;51.548;14.348;2023-04-24T00:20:03;3.87;;;3.50;;
17850;SDS011;9051;51.548;14.348;2023-04-24T00:22:38;3.93;;;3.37;;
17850;SDS011;9051;51.548;14.348;2023-04-24T00:25:10;5.27;;;3.80;;
17850;SDS011;9051;51.548;14.348;2023-04-24T00:27:42;5.53;;;3.33;;
17850;SDS011;9051;51.548;14.348;2023-04-24T00:30:14;4.63;;;3.53;;
17850;SDS011;9051;51.548;14.348;2023-04-24T00:32:46;3.90;;;3.50;;
17850;SDS011;9051;51.548;14.348;2023-04-24T00:35:18;4.50;;;3.20;;
17850;SDS011;9051;51.548;14.348;2023-04-24T00:37:52;5.23;;;3.83;;
17850;SDS011;9051;51.548;14.348;2023-04-24T00:40:24;4.07;;;3.73;;
17850;SDS011;9051;51.548;14.348;2023-04-24T00:42:56;4.60;;;4.10;;
17850;SDS011;9051;51.548;14.348;2023-04-24T00:45:28;4.20;;;3.80;;
17850;SDS011;9051;51.548;14.348;2023-04-24T00:48:01;3.90;;;3.50;;
17850;SDS011;9051;51.548;14.348;2023-04-24T00:50:35;5.00;;;3.53;;
17850;SDS011;9051;51.548;14.348;2023-04-24T00:53:08;5.33;;;3.67;;
17850;SDS011;9051;51.548;14.348;2023-04-24T00:55:40;4.17;;;3.70;;
17850;SDS011;9051;51.548;14.348;2023-04-24T00:58:12;6.13;;;3.70;;
17850;SDS011;9051;51.548;14.348;2023-04-24T01:00:44;5.13;;;4.03;;
17850;SDS011;9051;51.548;14.348;2023-04-24T01:03:17;5.80;;;4.00;;
17850;SDS011;9051;51.548;14.348;2023-04-24T01:05:49;4.47;;;4.07;;
17850;SDS011;9051;51.548;14.348;2023-04-24T01:08:24;5.57;;;3.83;;
17850;SDS011;9051;51.548;14.348;2023-04-24T01:10:57;4.47;;;3.90;;
17850;SDS011;9051;51.548;14.348;2023-04-24T01:13:29;4.53;;;3.90;;
17850;SDS011;9051;51.548;14.348;2023-04-24T01:16:02;5.23;;;3.60;;
17850;SDS011;9051;51.548;14.348;2023-04-24T01:18:34;4.13;;;3.73;;
17850;SDS011;9051;51.548;14.348;2023-04-24T01:21:07;4.77;;;3.97;;
17850;SDS011;9051;51.548;14.348;2023-04-24T01:23:41;4.80;;;3.60;;
17850;SDS011;9051;51.548;14.348;2023-04-24T01:26:17;4.50;;;3.90;;
17850;SDS011;9051;51.548;14.348;2023-04-24T01:28:50;4.67;;;4.27;;
17850;SDS011;9051;51.548;14.348;2023-04-24T01:31:22;6.00;;;4.03;;
17850;SDS011;9051;51.548;14.348;2023-04-24T01:33:54;5.00;;;4.50;;
17850;SDS011;9051;51.548;14.348;2023-04-24T01:36:27;4.83;;;4.33;;
17850;SDS011;9051;51.548;14.348;2023-04-24T01:39:02;5.33;;;4.83;;
17850;SDS011;9051;51.548;14.348;2023-04-24T01:41:34;5.53;;;4.90;;
17850;SDS011;9051;51.548;14.348;2023-04-24T01:44:07;4.60;;;4.20;;
17850;SDS011;9051;51.548;14.348;2023-04-24T01:46:39;5.70;;;4.53;;
17850;SDS011;9051;51.548;14.348;2023-04-24T01:49:11;4.87;;;4.37;;
17850;SDS011;9051;51.548;14.348;2023-04-24T01:51:43;6.60;;;4.70;;
17850;SDS011;9051;51.548;14.348;2023-04-24T01:54:16;6.10;;;4.40;;
17850;SDS011;9051;51.548;14.348;2023-04-24T01:56:48;4.70;;;4.20;;
17850;SDS011;9051;51.548;14.348;2023-04-24T01:59:20;5.43;;;4.60;;
17850;SDS011;9051;51.548;14.348;2023-04-24T02:01:52;5.60;;;4.43;;
17850;SDS011;9051;51.548;14.348;2023-04-24T02:04:24;4.87;;;4.40;;
17850;SDS011;9051;51.548;14.348;2023-04-24T02:06:56;4.70;;;4.30;;
17850;SDS011;9051;51.548;14.348;2023-04-24T02:09:30;5.20;;;4.70;;
17850;SDS011;9051;51.548;14.348;2023-04-24T02:12:02;5.20;;;4.70;;
17850;SDS011;9051;51.548;14.348;2023-04-24T02:14:34;5.10;;;4.60;;
17850;SDS011;9051;51.548;14.348;2023-04-24T02:17:07;4.60;;;4.20;;
17850;SDS011;9051;51.548;14.348;2023-04-24T02:19:40;7.20;;;4.30;;
17850;SDS011;9051;51.548;14.348;2023-04-24T02:22:14;4.70;;;4.30;;
17850;SDS011;9051;51.548;14.348;2023-04-24T02:24:47;5.20;;;3.90;;
17850;SDS011;9051;51.548;14.348;2023-04-24T02:27:20;5.53;;;4.23;;
17850;SDS011;9051;51.548;14.348;2023-04-24T02:29:52;4.83;;;4.33;;
17850;SDS011;9051;51.548;14.348;2023-04-24T02:32:25;5.30;;;4.80;;
17850;SDS011;9051;51.548;14.348;2023-04-24T02:34:57;5.00;;;4.20;;
17850;SDS011;9051;51.548;14.348;2023-04-24T02:37:29;4.63;;;4.23;;
17850;SDS011;9051;51.548;14.348;2023-04-24T02:40:03;5.43;;;4.60;;
17850;SDS011;9051;51.548;14.348;2023-04-24T02:42:36;6.23;;;4.40;;
17850;SDS011;9051;51.548;14.348;2023-04-24T02:45:08;5.50;;;4.40;;
17850;SDS011;9051;51.548;14.348;2023-04-24T02:47:41;5.03;;;4.50;;
17850;SDS011;9051;51.548;14.348;2023-04-24T02:50:12;5.23;;;4.73;;
17850;SDS011;9051;51.548;14.348;2023-04-24T02:52:44;4.73;;;4.20;;
17850;SDS011;9051;51.548;14.348;2023-04-24T02:55:18;5.13;;;4.40;;
17850;SDS011;9051;51.548;14.348;2023-04-24T02:57:50;5.30;;;4.43;;
17850;SDS011;9051;51.548;14.348;2023-04-24T03:00:22;5.97;;;4.30;;
17850;SDS011;9051;51.548;14.348;2023-04-24T03:02:55;4.63;;;4.23;;
17850;SDS011;9051;51.548;14.348;2023-04-24T03:05:27;5.23;;;4.73;;
17850;SDS011;9051;51.548;14.348;2023-04-24T03:08:01;4.87;;;4.33;;
17850;SDS011;9051;51.548;14.348;2023-04-24T03:10:37;5.47;;;4.70;;
17850;SDS011;9051;51.548;14.348;2023-04-24T03:13:09;5.83;;;4.43;;
17850;SDS011;9051;51.548;14.348;2023-04-24T03:15:41;5.40;;;4.67;;
17850;SDS011;9051;51.548;14.348;2023-04-24T03:18:12;5.17;;;4.30;;
17850;SDS011;9051;51.548;14.348;2023-04-24T03:20:45;4.93;;;4.43;;
17850;SDS011;9051;51.548;14.348;2023-04-24T03:23:18;6.43;;;4.53;;
17850;SDS011;9051;51.548;14.348;2023-04-24T03:25:51;4.87;;;4.37;;
17850;SDS011;9051;51.548;14.348;2023-04-24T03:28:25;6.77;;;4.97;;
17850;SDS011;9051;51.548;14.348;2023-04-24T03:31:02;7.37;;;5.43;;
17850;SDS011;9051;51.548;14.348;2023-04-24T03:33:38;5.10;;;4.60;;
17850;SDS011;9051;51.548;14.348;2023-04-24T03:36:11;5.23;;;4.73;;
17850;SDS011;9051;51.548;14.348;2023-04-24T03:38:44;5.53;;;5.03;;
17850;SDS011;9051;51.548;14.348;2023-04-24T03:41:33;6.13;;;5.20;;
17850;SDS011;9051;51.548;14.348;2023-04-24T03:44:12;6.17;;;4.90;;
17850;SDS011;9051;51.548;14.348;2023-04-24T03:46:45;4.77;;;4.33;;
17850;SDS011;9051;51.548;14.348;2023-04-24T03:49:23;6.83;;;4.70;;
17850;SDS011;9051;51.548;14.348;2023-04-24T03:51:55;6.00;;;4.67;;
17850;SDS011;9051;51.548;14.348;2023-04-24T03:54:30;5.97;;;4.63;;
17850;SDS011;9051;51.548;14.348;2023-04-24T03:57:06;5.30;;;4.80;;
17850;SDS011;9051;51.548;14.348;2023-04-24T03:59:42;4.60;;;4.13;;
17850;SDS011;9051;51.548;14.348;2023-04-24T04:02:20;6.73;;;4.47;;
17850;SDS011;9051;51.548;14.348;2023-04-24T04:04:52;6.30;;;4.50;;
17850;SDS011;9051;51.548;14.348;2023-04-24T04:07:24;5.20;;;4.60;;
17850;SDS011;9051;51.548;14.348;2023-04-24T04:09:56;4.73;;;4.13;;
17850;SDS011;9051;51.548;14.348;2023-04-24T04:12:30;5.33;;;4.10;;
17850;SDS011;9051;51.548;14.348;2023-04-24T04:15:02;5.43;;;4.17;;
17850;SDS011;9051;51.548;14.348;2023-04-24T04:17:35;4.70;;;4.00;;
17850;SDS011;9051;51.548;14.348;2023-04-24T04:20:10;4.43;;;4.03;;
17850;SDS011;9051;51.548;14.348;2023-04-24T04:22:43;4.63;;;4.23;;
17850;SDS011;9051;51.548;14.348;2023-04-24T04:25:21;8.73;;;4.07;;
17850;SDS011;9051;51.548;14.348;2023-04-24T04:27:54;4.30;;;3.90;;
17850;SDS011;9051;51.548;14.348;2023-04-24T04:30:28;6.10;;;4.10;;
17850;SDS011;9051;51.548;14.348;2023-04-24T04:33:06;4.47;;;3.77;;
17850;SDS011;9051;51.548;14.348;2023-04-24T04:35:39;5.33;;;3.60;;
17850;SDS011;9051;51.548;14.348;2023-04-24T04:38:13;4.50;;;3.60;;
17850;SDS011;9051;51.548;14.348;2023-04-24T04:40:58;3.97;;;3.67;;
17850;SDS011;9051;51.548;14.348;2023-04-24T04:43:38;3.37;;;3.07;;
17850;SDS011;9051;51.548;14.348;2023-04-24T04:46:11;3.53;;;3.20;;
17850;SDS011;9051;51.548;14.348;2023-04-24T04:49:17;3.50;;;3.20;;
17850;SDS011;9051;51.548;14.348;2023-04-24T04:51:52;4.00;;;3.20;;
17850;SDS011;9051;51.548;14.348;2023-04-24T04:54:29;4.40;;;3.23;;
17850;SDS011;9051;51.548;14.348;2023-04-24T04:57:01;3.80;;;3.50;;
17850;SDS011;9051;51.548;14.348;2023-04-24T04:59:35;3.83;;;3.37;;
17850;SDS011;9051;51.548;14.348;2023-04-24T05:02:13;3.63;;;3.17;;
17850;SDS011;9051;51.548;14.348;2023-04-24T05:04:45;3.10;;;2.80;;
17850;SDS011;9051;51.548;14.348;2023-04-24T05:07:17;4.00;;;3.00;;
17850;SDS011;9051;51.548;14.348;2023-04-24T05:09:54;3.33;;;2.90;;
17850;SDS011;9051;51.548;14.348;2023-04-24T05:12:26;3.97;;;2.70;;
17850;SDS011;9051;51.548;14.348;2023-04-24T05:14:59;4.50;;;2.60;;
17850;SDS011;9051;51.548;14.348;2023-04-24T05:17:31;3.10;;;2.80;;
17850;SDS011;9051;51.548;14.348;2023-04-24T05:20:04;5.27;;;2.90;;
17850;SDS011;9051;51.548;14.348;2023-04-24T05:22:37;2.83;;;2.63;;
17850;SDS011;9051;51.548;14.348;2023-04-24T05:25:11;2.97;;;2.77;;
17850;SDS011;9051;51.548;14.348;2023-04-24T05:27:49;4.50;;;2.70;;
17850;SDS011;9051;51.548;14.348;2023-04-24T05:30:24;3.30;;;2.63;;
17850;SDS011;9051;51.548;14.348;2023-04-24T05:32:56;2.53;;;2.33;;
17850;SDS011;9051;51.548;14.348;2023-04-24T05:35:28;3.20;;;2.27;;
17850;SDS011;9051;51.548;14.348;2023-04-24T05:38:00;2.93;;;2.63;;
17850;SDS011;9051;51.548;14.348;2023-04-24T05:40:32;2.80;;;2.33;;
17850;SDS011;9051;51.548;14.348;2023-04-24T05:43:04;2.60;;;2.37;;
17850;SDS011;9051;51.548;14.348;2023-04-24T05:45:37;3.87;;;2.70;;
17850;SDS011;9051;51.548;14.348;2023-04-24T05:48:10;2.57;;;2.23;;
17850;SDS011;9051;51.548;14.348;2023-04-24T05:50:42;2.87;;;2.50;;
17850;SDS011;9051;51.548;14.348;2023-04-24T05:53:15;2.33;;;1.93;;
17850;SDS011;9051;51.548;14.348;2023-04-24T05:55:47;2.63;;;1.87;;
17850;SDS011;9051;51.548;14.348;2023-04-24T05:58:19;2.40;;;2.20;;
17850;SDS011;9051;51.548;14.348;2023-04-24T06:00:54;2.63;;;1.90;;
17850;SDS011;9051;51.548;14.348;2023-04-24T06:03:26;2.00;;;1.80;;
17850;SDS011;9051;51.548;14.348;2023-04-24T06:05:58;3.13;;;1.73;;
17850;SDS011;9051;51.548;14.348;2023-04-24T06:08:31;2.37;;;1.70;;
17850;SDS011;9051;51.548;14.348;2023-04-24T06:11:02;1.67;;;1.57;;
17850;SDS011;9051;51.548;14.348;2023-04-24T06:13:35;1.70;;;1.60;;
17850;SDS011;9051;51.548;14.348;2023-04-24T06:16:27;3.73;;;1.63;;
17850;SDS011;9051;51.548;14.348;2023-04-24T06:19:05;6.77;;;1.70;;
17850;SDS011;9051;51.548;14.348;2023-04-24T06:21:37;1.40;;;1.30;;
17850;SDS011;9051;51.548;14.348;2023-04-24T06:24:09;2.10;;;1.20;;
17850;SDS011;9051;51.548;14.348;2023-04-24T06:26:42;1.40;;;1.30;;
17850;SDS011;9051;51.548;14.348;2023-04-24T06:29:13;1.03;;;1.00;;
17850;SDS011;9051;51.548;14.348;2023-04-24T06:31:47;1.67;;;1.20;;
17850;SDS011;9051;51.548;14.348;2023-04-24T06:34:19;1.57;;;1.17;;
17850;SDS011;9051;51.548;14.348;2023-04-24T06:36:52;1.80;;;1.13;;
17850;SDS011;9051;51.548;14.348;2023-04-24T06:39:24;1.23;;;0.93;;
17850;SDS011;9051;51.548;14.348;2023-04-24T06:41:56;1.27;;;1.17;;
17850;SDS011;9051;51.548;14.348;2023-04-24T06:44:28;2.20;;;1.30;;
17850;SDS011;9051;51.548;14.348;2023-04-24T06:47:01;1.60;;;1.10;;
17850;SDS011;9051;51.548;14.348;2023-04-24T06:49:34;1.33;;;1.17;;
17850;SDS011;9051;51.548;14.348;2023-04-24T06:52:06;2.17;;;1.20;;
17850;SDS011;9051;51.548;14.348;2023-04-24T06:54:38;1.20;;;1.10;;
17850;SDS011;9051;51.548;14.348;2023-04-24T06:57:11;1.90;;;0.90;;
17850;SDS011;9051;51.548;14.348;2023-04-24T06:59:43;1.30;;;1.20;;
17850;SDS011;9051;51.548;14.348;2023-04-24T07:02:16;1.23;;;1.00;;
17850;SDS011;9051;51.548;14.348;2023-04-24T07:04:48;1.30;;;1.20;;
17850;SDS011;9051;51.548;14.348;2023-04-24T07:07:20;2.03;;;1.00;;
17850;SDS011;9051;51.548;14.348;2023-04-24T07:09:53;1.37;;;1.03;;
17850;SDS011;9051;51.548;14.348;2023-04-24T07:12:26;2.93;;;1.27;;
17850;SDS011;9051;51.548;14.348;2023-04-24T07:14:58;2.00;;;1.43;;
17850;SDS011;9051;51.548;14.348;2023-04-24T07:17:31;2.33;;;1.20;;
17850;SDS011;9051;51.548;14.348;2023-04-24T07:20:03;2.70;;;1.43;;
17850;SDS011;9051;51.548;14.348;2023-04-24T07:22:39;2.67;;;1.33;;
17850;SDS011;9051;51.548;14.348;2023-04-24T07:25:11;1.40;;;1.30;;
17850;SDS011;9051;51.548;14.348;2023-04-24T07:27:43;2.73;;;1.30;;
17850;SDS011;9051;51.548;14.348;2023-04-24T07:30:15;1.40;;;1.30;;
17850;SDS011;9051;51.548;14.348;2023-04-24T07:32:49;2.50;;;1.47;;
17850;SDS011;9051;51.548;14.348;2023-04-24T07:35:21;1.47;;;1.37;;
17850;SDS011;9051;51.548;14.348;2023-04-24T07:37:55;1.67;;;1.50;;
17850;SDS011;9051;51.548;14.348;2023-04-24T07:40:27;1.67;;;1.40;;
17850;SDS011;9051;51.548;14.348;2023-04-24T07:42:59;2.30;;;1.20;;
17850;SDS011;9051;51.548;14.348;2023-04-24T07:45:31;2.43;;;1.27;;
17850;SDS011;9051;51.548;14.348;2023-04-24T07:48:08;2.27;;;1.40;;
17850;SDS011;9051;51.548;14.348;2023-04-24T07:50:40;2.83;;;1.80;;
17850;SDS011;9051;51.548;14.348;2023-04-24T07:53:12;1.73;;;1.53;;
17850;SDS011;9051;51.548;14.348;2023-04-24T07:55:44;2.17;;;1.37;;
17850;SDS011;9051;51.548;14.348;2023-04-24T07:58:16;2.93;;;1.40;;
17850;SDS011;9051;51.548;14.348;2023-04-24T08:00:48;0.93;;;0.93;;
17850;SDS011;9051;51.548;14.348;2023-04-24T08:03:22;1.57;;;1.10;;
17850;SDS011;9051;51.548;14.348;2023-04-24T08:05:54;1.63;;;1.43;;
17850;SDS011;9051;51.548;14.348;2023-04-24T08:08:27;1.43;;;1.33;;
17850;SDS011;9051;51.548;14.348;2023-04-24T08:11:02;1.93;;;1.43;;
17850;SDS011;9051;51.548;14.348;2023-04-24T08:13:34;2.37;;;1.20;;
17850;SDS011;9051;51.548;14.348;2023-04-24T08:16:06;2.47;;;1.50;;
17850;SDS011;9051;51.548;14.348;2023-04-24T08:18:40;1.67;;;1.40;;
17850;SDS011;9051;51.548;14.348;2023-04-24T08:21:12;1.63;;;1.37;;
17850;SDS011;9051;51.548;14.348;2023-04-24T08:23:47;1.60;;;1.17;;
17850;SDS011;9051;51.548;14.348;2023-04-24T08:26:19;1.60;;;1.07;;
17850;SDS011;9051;51.548;14.348;2023-04-24T08:28:51;2.00;;;1.13;;
17850;SDS011;9051;51.548;14.348;2023-04-24T08:31:23;1.40;;;1.30;;
17850;SDS011;9051;51.548;14.348;2023-04-24T08:33:58;3.40;;;1.30;;
17850;SDS011;9051;51.548;14.348;2023-04-24T08:36:31;2.70;;;1.23;;
17850;SDS011;9051;51.548;14.348;2023-04-24T08:39:03;1.40;;;1.13;;
17850;SDS011;9051;51.548;14.348;2023-04-24T08:41:36;1.33;;;1.10;;
17850;SDS011;9051;51.548;14.348;2023-04-24T08:44:09;2.50;;;1.40;;
17850;SDS011;9051;51.548;14.348;2023-04-24T08:46:41;1.90;;;1.20;;
17850;SDS011;9051;51.548;14.348;2023-04-24T08:49:19;1.30;;;1.20;;
17850;SDS011;9051;51.548;14.348;2023-04-24T08:51:52;1.50;;;1.10;;
17850;SDS011;9051;51.548;14.348;2023-04-24T08:54:24;1.13;;;1.00;;
17850;SDS011;9051;51.548;14.348;2023-04-24T08:56:57;1.27;;;1.17;;
17850;SDS011;9051;51.548;14.348;2023-04-24T08:59:34;2.67;;;1.20;;
17850;SDS011;9051;51.548;14.348;2023-04-24T09:02:08;1.63;;;1.07;;
17850;SDS011;9051;51.548;14.348;2023-04-24T09:04:43;2.30;;;1.50;;
17850;SDS011;9051;51.548;14.348;2023-04-24T09:07:17;4.63;;;1.30;;
17850;SDS011;9051;51.548;14.348;2023-04-24T09:09:50;1.43;;;1.10;;
17850;SDS011;9051;51.548;14.348;2023-04-24T09:12:23;1.57;;;1.00;;
17850;SDS011;9051;51.548;14.348;2023-04-24T09:14:55;1.13;;;1.03;;
17850;SDS011;9051;51.548;14.348;2023-04-24T09:17:28;1.30;;;1.20;;
17850;SDS011;9051;51.548;14.348;2023-04-24T09:20:02;1.70;;;1.33;;
17850;SDS011;9051;51.548;14.348;2023-04-24T09:22:35;16.07;;;6.93;;
17850;SDS011;9051;51.548;14.348;2023-04-24T09:25:08;4.30;;;2.60;;
17850;SDS011;9051;51.548;14.348;2023-04-24T09:27:43;1.93;;;1.20;;
17850;SDS011;9051;51.548;14.348;2023-04-24T09:30:18;3.03;;;2.20;;
17850;SDS011;9051;51.548;14.348;2023-04-24T09:36:03;9.07;;;5.23;;
17850;SDS011;9051;51.548;14.348;2023-04-24T09:38:39;2.67;;;1.10;;
17850;SDS011;9051;51.548;14.348;2023-04-24T09:41:13;2.37;;;1.50;;
17850;SDS011;9051;51.548;14.348;2023-04-24T09:43:45;3.40;;;1.10;;
17850;SDS011;9051;51.548;14.348;2023-04-24T09:46:18;1.73;;;1.00;;
17850;SDS011;9051;51.548;14.348;2023-04-24T09:48:51;1.93;;;1.17;;
17850;SDS011;9051;51.548;14.348;2023-04-24T09:51:34;1.77;;;1.27;;
17850;SDS011;9051;51.548;14.348;2023-04-24T09:54:13;3.93;;;1.40;;
17850;SDS011;9051;51.548;14.348;2023-04-24T09:56:48;3.10;;;1.60;;
17850;SDS011;9051;51.548;14.348;2023-04-24T09:59:21;3.40;;;1.10;;
17850;SDS011;9051;51.548;14.348;2023-04-24T10:01:54;1.20;;;1.10;;
17850;SDS011;9051;51.548;14.348;2023-04-24T10:04:28;2.97;;;1.10;;
17850;SDS011;9051;51.548;14.348;2023-04-24T10:07:02;3.47;;;1.23;;
17850;SDS011;9051;51.548;14.348;2023-04-24T10:09:52;2.47;;;1.27;;
17850;SDS011;9051;51.548;14.348;2023-04-24T10:12:24;1.53;;;0.97;;
17850;SDS011;9051;51.548;14.348;2023-04-24T10:14:59;1.73;;;1.07;;
17850;SDS011;9051;51.548;14.348;2023-04-24T10:17:33;1.90;;;1.20;;
17850;SDS011;9051;51.548;14.348;2023-04-24T10:20:07;2.80;;;0.97;;
17850;SDS011;9051;51.548;14.348;2023-04-24T10:22:40;1.10;;;0.90;;
17850;SDS011;9051;51.548;14.348;2023-04-24T10:25:13;1.63;;;0.90;;
17850;SDS011;9051;51.548;14.348;2023-04-24T10:27:47;1.33;;;1.10;;
17850;SDS011;9051;51.548;14.348;2023-04-24T10:30:20;2.13;;;0.90;;
17850;SDS011;9051;51.548;14.348;2023-04-24T10:32:52;1.30;;;1.20;;
17850;SDS011;9051;51.548;14.348;2023-04-24T10:35:24;1.20;;;1.00;;
17850;SDS011;9051;51.548;14.348;2023-04-24T10:37:57;1.30;;;0.90;;
17850;SDS011;9051;51.548;14.348;2023-04-24T10:40:34;2.07;;;1.03;;
17850;SDS011;9051;51.548;14.348;2023-04-24T10:43:07;1.90;;;1.00;;
17850;SDS011;9051;51.548;14.348;2023-04-24T10:45:41;1.53;;;1.00;;
17850;SDS011;9051;51.548;14.348;2023-04-24T10:48:31;2.00;;;1.10;;
17850;SDS011;9051;51.548;14.348;2023-04-24T10:51:04;1.13;;;0.93;;
17850;SDS011;9051;51.548;14.348;2023-04-24T10:53:36;1.97;;;1.00;;
17850;SDS011;9051;51.548;14.348;2023-04-24T10:56:09;1.53;;;1.10;;
17850;SDS011;9051;51.548;14.348;2023-04-24T10:58:43;2.10;;;1.20;;
17850;SDS011;9051;51.548;14.348;2023-04-24T11:01:25;1.30;;;1.03;;
17850;SDS011;9051;51.548;14.348;2023-04-24T11:03:59;1.77;;;1.10;;
17850;SDS011;9051;51.548;14.348;2023-04-24T11:06:32;1.53;;;1.23;;
17850;SDS011;9051;51.548;14.348;2023-04-24T11:09:06;1.30;;;0.90;;
17850;SDS011;9051;51.548;14.348;2023-04-24T11:11:45;0.83;;;0.83;;
17850;SDS011;9051;51.548;14.348;2023-04-24T11:14:18;1.17;;;1.00;;
17850;SDS011;9051;51.548;14.348;2023-04-24T11:16:52;1.67;;;0.97;;
17850;SDS011;9051;51.548;14.348;2023-04-24T11:19:25;1.03;;;0.90;;
17850;SDS011;9051;51.548;14.348;2023-04-24T11:22:00;1.57;;;1.00;;
17850;SDS011;9051;51.548;14.348;2023-04-24T11:24:40;0.80;;;0.70;;
17850;SDS011;9051;51.548;14.348;2023-04-24T11:27:29;1.13;;;0.80;;
17850;SDS011;9051;51.548;14.348;2023-04-24T11:30:03;1.00;;;1.00;;
17850;SDS011;9051;51.548;14.348;2023-04-24T11:32:37;2.30;;;1.10;;
17850;SDS011;9051;51.548;14.348;2023-04-24T11:35:13;1.73;;;0.83;;
17850;SDS011;9051;51.548;14.348;2023-04-24T11:37:47;1.43;;;1.00;;
17850;SDS011;9051;51.548;14.348;2023-04-24T11:40:21;3.57;;;1.10;;
17850;SDS011;9051;51.548;14.348;2023-04-24T11:42:55;1.83;;;1.20;;
17850;SDS011;9051;51.548;14.348;2023-04-24T11:45:27;1.77;;;1.10;;
17850;SDS011;9051;51.548;14.348;2023-04-24T11:47:59;1.10;;;1.00;;
17850;SDS011;9051;51.548;14.348;2023-04-24T11:50:31;1.03;;;1.00;;
17850;SDS011;9051;51.548;14.348;2023-04-24T11:53:03;2.40;;;1.40;;
17850;SDS011;9051;51.548;14.348;2023-04-24T11:55:35;0.90;;;0.90;;
17850;SDS011;9051;51.548;14.348;2023-04-24T11:58:09;1.63;;;0.77;;
17850;SDS011;9051;51.548;14.348;2023-04-24T12:00:41;0.77;;;0.77;;
17850;SDS011;9051;51.548;14.348;2023-04-24T12:03:13;1.40;;;0.77;;
17850;SDS011;9051;51.548;14.348;2023-04-24T12:05:45;3.40;;;0.90;;
17850;SDS011;9051;51.548;14.348;2023-04-24T12:08:26;1.77;;;0.90;;
17850;SDS011;9051;51.548;14.348;2023-04-24T12:10:59;1.53;;;0.80;;
17850;SDS011;9051;51.548;14.348;2023-04-24T12:13:33;1.40;;;1.00;;
17850;SDS011;9051;51.548;14.348;2023-04-24T12:16:05;0.97;;;0.90;;
17850;SDS011;9051;51.548;14.348;2023-04-24T12:18:41;4.60;;;1.10;;
17850;SDS011;9051;51.548;14.348;2023-04-24T12:21:14;1.57;;;0.93;;
17850;SDS011;9051;51.548;14.348;2023-04-24T12:23:47;1.57;;;0.90;;
17850;SDS011;9051;51.548;14.348;2023-04-24T12:26:20;1.03;;;0.63;;
17850;SDS011;9051;51.548;14.348;2023-04-24T12:29:01;1.20;;;0.93;;
17850;SDS011;9051;51.548;14.348;2023-04-24T12:31:34;1.00;;;1.00;;
17850;SDS011;9051;51.548;14.348;2023-04-24T12:34:16;2.03;;;1.07;;
17850;SDS011;9051;51.548;14.348;2023-04-24T12:36:49;1.57;;;1.00;;
17850;SDS011;9051;51.548;14.348;2023-04-24T12:39:21;1.43;;;0.90;;
17850;SDS011;9051;51.548;14.348;2023-04-24T12:41:55;0.83;;;0.83;;
17850;SDS011;9051;51.548;14.348;2023-04-24T12:44:30;1.60;;;0.80;;
17850;SDS011;9051;51.548;14.348;2023-04-24T12:47:04;1.63;;;0.90;;
17850;SDS011;9051;51.548;14.348;2023-04-24T12:49:37;1.60;;;1.20;;
17850;SDS011;9051;51.548;14.348;2023-04-24T12:52:09;1.00;;;1.00;;
17850;SDS011;9051;51.548;14.348;2023-04-24T12:54:41;0.90;;;0.90;;
17850;SDS011;9051;51.548;14.348;2023-04-24T12:57:13;0.80;;;0.80;;
17850;SDS011;9051;51.548;14.348;2023-04-24T12:59:47;1.20;;;0.97;;
17850;SDS011;9051;51.548;14.348;2023-04-24T13:02:19;0.60;;;0.60;;
17850;SDS011;9051;51.548;14.348;2023-04-24T13:04:52;0.80;;;0.80;;
17850;SDS011;9051;51.548;14.348;2023-04-24T13:07:25;3.73;;;1.10;;
17850;SDS011;9051;51.548;14.348;2023-04-24T13:09:58;1.90;;;0.80;;
17850;SDS011;9051;51.548;14.348;2023-04-24T13:12:30;1.50;;;0.60;;
17850;SDS011;9051;51.548;14.348;2023-04-24T13:15:05;0.60;;;0.60;;
17850;SDS011;9051;51.548;14.348;2023-04-24T13:17:38;0.57;;;0.43;;
17850;SDS011;9051;51.548;14.348;2023-04-24T13:20:10;1.83;;;0.70;;
17850;SDS011;9051;51.548;14.348;2023-04-24T13:22:42;0.53;;;0.50;;
17850;SDS011;9051;51.548;14.348;2023-04-24T13:25:14;0.60;;;0.60;;
17850;SDS011;9051;51.548;14.348;2023-04-24T13:27:48;0.80;;;0.70;;
17850;SDS011;9051;51.548;14.348;2023-04-24T13:30:22;2.00;;;0.60;;
17850;SDS011;9051;51.548;14.348;2023-04-24T13:32:54;0.87;;;0.70;;
17850;SDS011;9051;51.548;14.348;2023-04-24T13:35:26;1.80;;;0.60;;
17850;SDS011;9051;51.548;14.348;2023-04-24T13:37:58;1.33;;;0.73;;
17850;SDS011;9051;51.548;14.348;2023-04-24T13:40:31;0.67;;;0.60;;
17850;SDS011;9051;51.548;14.348;2023-04-24T13:43:03;1.00;;;0.93;;
17850;SDS011;9051;51.548;14.348;2023-04-24T13:45:36;1.10;;;1.00;;
17850;SDS011;9051;51.548;14.348;2023-04-24T13:48:08;1.10;;;1.00;;
17850;SDS011;9051;51.548;14.348;2023-04-24T13:50:40;1.53;;;1.00;;
17850;SDS011;9051;51.548;14.348;2023-04-24T13:53:12;1.70;;;0.90;;
17850;SDS011;9051;51.548;14.348;2023-04-24T13:55:44;1.47;;;0.90;;
17850;SDS011;9051;51.548;14.348;2023-04-24T13:58:16;1.03;;;1.00;;
17850;SDS011;9051;51.548;14.348;2023-04-24T14:00:50;1.27;;;1.03;;
17850;SDS011;9051;51.548;14.348;2023-04-24T14:03:22;1.77;;;1.60;;
17850;SDS011;9051;51.548;14.348;2023-04-24T14:05:54;20.87;;;13.87;;
17850;SDS011;9051;51.548;14.348;2023-04-24T14:11:56;1.67;;;1.10;;
17850;SDS011;9051;51.548;14.348;2023-04-24T14:18:06;2.83;;;1.27;;
17850;SDS011;9051;51.548;14.348;2023-04-24T14:21:14;1.73;;;1.10;;
17850;SDS011;9051;51.548;14.348;2023-04-24T14:23:58;0.97;;;0.90;;
17850;SDS011;9051;51.548;14.348;2023-04-24T14:26:30;1.83;;;1.20;;
17850;SDS011;9051;51.548;14.348;2023-04-24T14:29:06;1.27;;;1.10;;
17850;SDS011;9051;51.548;14.348;2023-04-24T14:31:44;2.13;;;1.03;;
17850;SDS011;9051;51.548;14.348;2023-04-24T14:34:25;1.20;;;1.10;;
17850;SDS011;9051;51.548;14.348;2023-04-24T14:37:13;3.47;;;2.70;;
17850;SDS011;9051;51.548;14.348;2023-04-24T14:39:51;3.37;;;2.40;;
17850;SDS011;9051;51.548;14.348;2023-04-24T14:42:23;1.53;;;0.93;;
17850;SDS011;9051;51.548;14.348;2023-04-24T14:45:03;3.10;;;0.90;;
17850;SDS011;9051;51.548;14.348;2023-04-24T14:47:41;0.53;;;0.50;;
17850;SDS011;9051;51.548;14.348;2023-04-24T14:50:14;1.23;;;1.00;;
17850;SDS011;9051;51.548;14.348;2023-04-24T14:52:46;1.63;;;1.00;;
17850;SDS011;9051;51.548;14.348;2023-04-24T14:58:57;16.90;;;4.07;;
17850;SDS011;9051;51.548;14.348;2023-04-24T15:01:29;1.23;;;1.10;;
17850;SDS011;9051;51.548;14.348;2023-04-24T15:04:00;1.20;;;1.10;;
17850;SDS011;9051;51.548;14.348;2023-04-24T15:06:34;1.00;;;1.00;;
17850;SDS011;9051;51.548;14.348;2023-04-24T15:09:06;2.33;;;0.97;;
17850;SDS011;9051;51.548;14.348;2023-04-24T15:11:38;1.20;;;1.10;;
17850;SDS011;9051;51.548;14.348;2023-04-24T15:14:10;1.77;;;1.07;;
17850;SDS011;9051;51.548;14.348;2023-04-24T15:16:42;1.53;;;1.07;;
17850;SDS011;9051;51.548;14.348;2023-04-24T15:19:34;1.20;;;1.10;;
17850;SDS011;9051;51.548;14.348;2023-04-24T15:22:09;1.30;;;1.20;;
17850;SDS011;9051;51.548;14.348;2023-04-24T15:24:55;1.60;;;1.07;;
17850;SDS011;9051;51.548;14.348;2023-04-24T15:28:01;1.13;;;1.03;;
17850;SDS011;9051;51.548;14.348;2023-04-24T15:30:45;1.30;;;1.20;;
17850;SDS011;9051;51.548;14.348;2023-04-24T15:33:25;1.30;;;1.20;;
17850;SDS011;9051;51.548;14.348;2023-04-24T15:36:22;0.90;;;0.90;;
17850;SDS011;9051;51.548;14.348;2023-04-24T15:41:46;1.93;;;1.20;;
17850;SDS011;9051;51.548;14.348;2023-04-24T15:44:18;2.03;;;1.20;;
17850;SDS011;9051;51.548;14.348;2023-04-24T15:46:52;1.17;;;1.07;;